Time;durP1;ratioP1;P1;durP2;ratioP2;P2;SDS_P1;SDS_P2;PMS_P1;PMS_P2;Temp;Humidity;BMP_temperature;BMP_pressure;BME280_temperature;BME280_humidity;BME280_pressure;Samples;Min_cycle;Max_cycle;Signal;HPM_P1;HPM_P2
2021/03/22 00:00:31;;;;;;;3.53;1.65;;;22.90;27.90;;;;;;5050991;28;20372;-57
2021/03/22 00:02:58;;;;;;;3.67;1.35;;;22.90;27.90;;;;;;5051041;28;20028;-53
2021/03/22 00:05:24;;;;;;;2.30;0.85;;;22.90;28.00;;;;;;5050519;28;20021;-54
2021/03/22 00:07:51;;;;;;;3.15;1.13;;;22.90;28.00;;;;;;5050977;28;20124;-53
2021/03/22 00:10:19;;;;;;;2.78;1.00;;;22.90;28.10;;;;;;5050261;28;20036;-53
2021/03/22 00:12:46;;;;;;;3.00;0.95;;;22.90;28.10;;;;;;5051127;28;20032;-56
2021/03/22 00:15:12;;;;;;;2.67;1.08;;;22.90;28.10;;;;;;5050231;28;20032;-55
2021/03/22 00:17:38;;;;;;;3.05;1.10;;;22.90;28.10;;;;;;5050706;28;20067;-53
2021/03/22 00:20:04;;;;;;;2.45;0.90;;;22.90;28.10;;;;;;5050005;28;20432;-57
2021/03/22 00:22:30;;;;;;;3.13;0.98;;;22.80;28.10;;;;;;5050700;28;20329;-54
2021/03/22 00:24:56;;;;;;;3.13;0.90;;;22.80;28.10;;;;;;5051601;28;20067;-54
2021/03/22 00:27:22;;;;;;;4.05;1.30;;;22.80;28.10;;;;;;5051003;28;20086;-52
2021/03/22 00:29:48;;;;;;;4.18;1.27;;;22.80;28.10;;;;;;5051365;28;20025;-56
2021/03/22 00:32:13;;;;;;;2.90;1.13;;;22.80;28.10;;;;;;5050956;28;20071;-57
2021/03/22 00:34:39;;;;;;;3.75;1.20;;;22.80;28.20;;;;;;5050053;28;20033;-52
2021/03/22 00:37:05;;;;;;;2.63;0.98;;;22.80;28.20;;;;;;5050542;28;20429;-56
2021/03/22 00:39:31;;;;;;;2.90;1.27;;;22.80;28.20;;;;;;5050423;28;20029;-53
2021/03/22 00:41:57;;;;;;;3.38;1.00;;;22.80;28.20;;;;;;5042537;28;20029;-52
2021/03/22 00:44:23;;;;;;;3.55;0.90;;;22.80;28.20;;;;;;5048471;28;20067;-56
2021/03/22 00:46:50;;;;;;;3.80;1.27;;;22.70;28.20;;;;;;5050673;28;20053;-48
2021/03/22 00:49:16;;;;;;;4.15;0.95;;;22.70;28.20;;;;;;5049080;28;20491;-52
2021/03/22 00:51:42;;;;;;;2.55;1.10;;;22.70;28.20;;;;;;5050114;28;20056;-59
2021/03/22 00:54:08;;;;;;;3.50;1.05;;;22.70;28.20;;;;;;5046735;28;20069;-57
2021/03/22 00:56:34;;;;;;;4.40;1.75;;;22.70;28.30;;;;;;5050730;28;20036;-56
2021/03/22 00:59:00;;;;;;;2.72;0.77;;;22.70;28.30;;;;;;5050685;28;20063;-57
2021/03/22 01:01:26;;;;;;;1.92;0.88;;;22.70;28.30;;;;;;5053495;28;20436;-51
2021/03/22 01:03:52;;;;;;;2.33;0.90;;;22.70;28.80;;;;;;5054308;28;20554;-52
2021/03/22 01:06:18;;;;;;;2.78;1.08;;;22.70;28.30;;;;;;5054406;28;20036;-56
2021/03/22 01:08:44;;;;;;;4.78;1.30;;;22.70;28.30;;;;;;5053888;28;20036;-50
2021/03/22 01:11:16;;;;;;;2.58;0.88;;;22.60;28.30;;;;;;5054501;28;20321;-57
2021/03/22 01:13:51;;;;;;;2.47;0.90;;;22.60;28.30;;;;;;5057084;28;20033;-55
2021/03/22 01:16:26;;;;;;;2.78;0.85;;;22.70;28.40;;;;;;5052733;28;20402;-55
2021/03/22 01:18:56;;;;;;;2.97;1.42;;;22.70;28.40;;;;;;5053711;28;20086;-57
2021/03/22 01:21:50;;;;;;;3.53;1.00;;;22.60;28.30;;;;;;5052982;28;20471;-52
2021/03/22 01:24:17;;;;;;;2.22;1.00;;;22.60;28.40;;;;;;5051235;28;20436;-56
2021/03/22 01:26:43;;;;;;;1.73;0.80;;;22.60;28.40;;;;;;5053358;28;20717;-54
2021/03/22 01:29:16;;;;;;;4.35;1.17;;;22.60;28.40;;;;;;5053946;28;20443;-53
2021/03/22 01:31:43;;;;;;;2.90;1.00;;;22.60;28.50;;;;;;5054020;28;20420;-54
2021/03/22 01:34:09;;;;;;;2.97;0.90;;;22.60;28.50;;;;;;5052845;28;20065;-54
2021/03/22 01:36:36;;;;;;;2.75;1.08;;;22.60;28.50;;;;;;5053734;28;20086;-52
2021/03/22 01:39:12;;;;;;;1.55;0.75;;;22.60;28.50;;;;;;5053564;28;20029;-59
2021/03/22 01:41:59;;;;;;;3.05;1.30;;;22.60;28.50;;;;;;5053395;28;20440;-55
2021/03/22 01:44:34;;;;;;;2.22;0.90;;;22.60;28.50;;;;;;5053712;28;20036;-53
2021/03/22 01:47:28;;;;;;;2.38;0.90;;;22.50;28.40;;;;;;5052251;28;20029;-54
2021/03/22 01:50:32;;;;;;;2.50;1.20;;;22.60;28.50;;;;;;5053270;28;20043;-53
2021/03/22 01:53:00;;;;;;;1.95;0.73;;;22.50;29.00;;;;;;4967654;28;20291;-51
2021/03/22 01:55:26;;;;;;;3.17;1.17;;;22.50;28.50;;;;;;4971114;28;20057;-54
2021/03/22 01:57:52;;;;;;;2.78;0.82;;;22.50;28.50;;;;;;5009335;28;20063;-56
2021/03/22 02:00:31;;;;;;;1.42;0.80;;;22.50;28.60;;;;;;5053731;28;20021;-51
2021/03/22 02:03:13;;;;;;;2.05;1.10;;;22.50;28.60;;;;;;5053115;28;20036;-50
2021/03/22 02:05:46;;;;;;;2.20;0.60;;;22.50;28.60;;;;;;5053581;28;20475;-55
2021/03/22 02:08:25;;;;;;;1.30;0.70;;;22.50;28.60;;;;;;5053932;28;20355;-51
2021/03/22 02:10:51;;;;;;;1.60;0.70;;;22.50;28.60;;;;;;5054245;28;20017;-55
2021/03/22 02:13:22;;;;;;;1.95;0.88;;;22.40;28.60;;;;;;5053290;28;20059;-55
2021/03/22 02:15:49;;;;;;;3.28;1.02;;;22.40;28.60;;;;;;5053370;28;20029;-56
2021/03/22 02:18:14;;;;;;;4.03;1.08;;;22.40;28.60;;;;;;5052022;28;20128;-56
2021/03/22 02:21:25;;;;;;;2.25;0.90;;;22.40;28.60;;;;;;5051234;28;20116;-56
2021/03/22 02:24:09;;;;;;;2.15;0.90;;;22.40;28.60;;;;;;5019723;28;20511;-54
2021/03/22 02:27:06;;;;;;;1.00;0.60;;;22.40;28.60;;;;;;5051335;28;20437;-51
2021/03/22 02:29:36;;;;;;;2.40;0.90;;;22.40;28.60;;;;;;5052183;28;20487;-54
2021/03/22 02:32:20;;;;;;;2.25;0.95;;;22.40;28.60;;;;;;5050842;28;20125;-56
2021/03/22 02:35:11;;;;;;;2.25;0.90;;;22.40;28.60;;;;;;5055538;28;20084;-56
2021/03/22 02:38:07;;;;;;;1.90;0.63;;;22.40;28.60;;;;;;5051677;28;20097;-51
2021/03/22 02:40:49;;;;;;;2.58;0.80;;;22.40;28.60;;;;;;5053497;28;20502;-54
2021/03/22 02:43:15;;;;;;;2.05;0.77;;;22.40;28.60;;;;;;5052529;28;20037;-58
2021/03/22 02:45:42;;;;;;;2.03;0.80;;;22.30;28.60;;;;;;5052449;28;20043;-54
2021/03/22 02:48:22;;;;;;;1.58;0.80;;;22.30;28.60;;;;;;5054220;28;20055;-51
2021/03/22 02:50:52;;;;;;;1.95;1.00;;;22.30;28.60;;;;;;5051281;28;20057;-53
2021/03/22 02:53:45;;;;;;;3.03;0.88;;;22.40;28.70;;;;;;5052561;28;20029;-58
2021/03/22 02:56:20;;;;;;;2.33;0.75;;;22.30;28.60;;;;;;5052380;28;20036;-53
2021/03/22 02:58:57;;;;;;;2.45;0.90;;;22.30;28.60;;;;;;5052596;28;20025;-53
2021/03/22 03:01:29;;;;;;;2.22;0.90;;;22.30;28.70;;;;;;5054679;28;20033;-57
2021/03/22 03:03:57;;;;;;;3.33;1.30;;;22.30;28.70;;;;;;5034424;28;20036;-58
2021/03/22 03:06:55;;;;;;;2.00;1.02;;;22.30;28.70;;;;;;5050494;28;20051;-51
2021/03/22 03:09:25;;;;;;;3.25;0.90;;;22.30;28.70;;;;;;5051134;28;20139;-55
2021/03/22 03:11:52;;;;;;;2.58;0.73;;;22.30;28.70;;;;;;5052664;28;20114;-56
2021/03/22 03:14:19;;;;;;;1.55;0.80;;;22.30;28.70;;;;;;5052178;28;20037;-55
2021/03/22 03:16:45;;;;;;;2.22;1.00;;;22.30;28.70;;;;;;5051120;28;20116;-53
2021/03/22 03:19:11;;;;;;;2.90;0.88;;;22.30;28.90;;;;;;5051602;28;20116;-58
2021/03/22 03:21:37;;;;;;;2.22;0.80;;;22.30;28.80;;;;;;5052201;28;20025;-55
2021/03/22 03:24:06;;;;;;;2.72;0.82;;;22.30;28.80;;;;;;5052705;28;20028;-56
2021/03/22 03:26:32;;;;;;;1.25;0.70;;;22.20;28.80;;;;;;5050819;28;20380;-55
2021/03/22 03:28:58;;;;;;;2.90;1.20;;;22.20;28.80;;;;;;5051304;28;20040;-55
2021/03/22 03:31:24;;;;;;;2.65;1.10;;;22.20;28.80;;;;;;5050262;28;20409;-54
2021/03/22 03:33:50;;;;;;;2.38;0.95;;;22.20;28.90;;;;;;5051848;28;20511;-51
2021/03/22 03:36:17;;;;;;;1.75;0.88;;;22.20;28.90;;;;;;5051364;28;20052;-54
2021/03/22 03:38:43;;;;;;;2.20;0.82;;;22.20;28.90;;;;;;5052372;28;20036;-52
2021/03/22 03:41:09;;;;;;;2.45;0.80;;;22.20;28.90;;;;;;5053185;28;20020;-49
2021/03/22 03:43:35;;;;;;;2.10;1.00;;;22.20;28.90;;;;;;5052673;28;20578;-49
2021/03/22 03:46:01;;;;;;;2.92;1.00;;;22.20;28.90;;;;;;5051191;28;20124;-51
2021/03/22 03:48:27;;;;;;;2.33;0.93;;;22.20;29.00;;;;;;5055094;28;20391;-50
2021/03/22 03:50:56;;;;;;;4.10;1.40;;;22.20;29.00;;;;;;5050543;28;20025;-52
2021/03/22 03:53:24;;;;;;;2.25;1.02;;;22.20;29.10;;;;;;5051279;28;20025;-54
2021/03/22 03:55:51;;;;;;;2.88;1.00;;;22.20;29.10;;;;;;5050761;28;20336;-55
2021/03/22 03:58:18;;;;;;;2.50;1.13;;;22.20;29.10;;;;;;5052635;28;20353;-58
2021/03/22 04:00:46;;;;;;;2.35;0.90;;;22.20;29.10;;;;;;5050462;28;20036;-52
2021/03/22 04:03:37;;;;;;;4.20;0.93;;;22.10;29.10;;;;;;5052552;28;20021;-56
2021/03/22 04:06:22;;;;;;;2.45;0.80;;;22.20;29.20;;;;;;5052152;28;20110;-51
2021/03/22 04:08:52;;;;;;;2.40;0.82;;;22.20;29.20;;;;;;5050676;28;20510;-54
2021/03/22 04:11:25;;;;;;;2.78;1.08;;;22.10;29.20;;;;;;5052199;28;20033;-53
2021/03/22 04:13:52;;;;;;;4.63;1.13;;;22.10;29.20;;;;;;5052992;28;20047;-49
2021/03/22 04:16:19;;;;;;;2.45;1.00;;;22.10;29.20;;;;;;5052153;28;20025;-52
2021/03/22 04:18:45;;;;;;;3.40;1.17;;;22.10;29.20;;;;;;5052072;28;20071;-53
2021/03/22 04:21:14;;;;;;;2.03;0.90;;;22.10;29.20;;;;;;5051126;28;20021;-48
2021/03/22 04:23:42;;;;;;;3.63;1.08;;;22.10;29.20;;;;;;5052204;28;20421;-57
2021/03/22 04:26:08;;;;;;;1.73;0.85;;;22.10;29.20;;;;;;5052325;28;20044;-56
2021/03/22 04:28:34;;;;;;;2.88;1.10;;;22.10;29.20;;;;;;5051968;28;20029;-54
2021/03/22 04:31:02;;;;;;;3.80;0.88;;;22.10;29.20;;;;;;5034636;28;20463;-54
2021/03/22 04:33:28;;;;;;;2.47;1.20;;;22.10;29.30;;;;;;5052069;28;20419;-58
2021/03/22 04:35:54;;;;;;;2.70;1.00;;;22.10;29.30;;;;;;5054871;28;20040;-51
2021/03/22 04:38:20;;;;;;;3.20;1.10;;;22.10;29.30;;;;;;5056020;28;20021;-54
2021/03/22 04:40:46;;;;;;;3.30;1.08;;;22.10;29.30;;;;;;5035932;28;20043;-55
2021/03/22 04:43:13;;;;;;;3.08;1.10;;;22.10;29.30;;;;;;5056325;28;20112;-53
2021/03/22 04:45:39;;;;;;;2.15;0.90;;;22.00;29.20;;;;;;5055256;28;20041;-54
2021/03/22 04:48:06;;;;;;;3.38;1.30;;;22.10;29.30;;;;;;5055980;28;20036;-56
2021/03/22 04:50:31;;;;;;;4.15;1.08;;;22.10;29.30;;;;;;5055487;28;20163;-53
2021/03/22 04:52:57;;;;;;;2.78;1.10;;;22.00;29.30;;;;;;5055071;28;20112;-52
2021/03/22 04:55:24;;;;;;;2.45;0.93;;;22.00;29.30;;;;;;5054356;28;20041;-52
2021/03/22 04:57:51;;;;;;;4.07;1.40;;;22.00;29.30;;;;;;5055126;28;20033;-52
2021/03/22 05:00:30;;;;;;;4.05;1.40;;;22.00;29.30;;;;;;5055878;28;20036;-54
2021/03/22 05:02:56;;;;;;;2.75;1.05;;;22.00;29.30;;;;;;5054947;28;20025;-56
2021/03/22 05:05:23;;;;;;;2.53;1.00;;;22.00;29.30;;;;;;5055030;28;20164;-57
2021/03/22 05:07:50;;;;;;;2.05;0.80;;;22.00;29.40;;;;;;5055534;28;20377;-52
2021/03/22 05:10:28;;;;;;;1.70;0.88;;;22.00;29.40;;;;;;5055123;28;20048;-55
2021/03/22 05:12:54;;;;;;;2.70;1.17;;;22.00;29.40;;;;;;5054914;28;20032;-56
2021/03/22 05:15:21;;;;;;;2.60;1.17;;;22.00;29.40;;;;;;5051550;28;20029;-56
2021/03/22 05:17:46;;;;;;;3.35;1.00;;;22.00;29.40;;;;;;5054860;28;20055;-55
2021/03/22 05:20:31;;;;;;;2.15;1.08;;;22.00;29.40;;;;;;5054863;28;20104;-48
2021/03/22 05:23:04;;;;;;;4.10;1.58;;;22.00;29.40;;;;;;5052342;28;20091;-57
2021/03/22 05:25:30;;;;;;;2.63;1.35;;;22.00;29.50;;;;;;5054756;28;20407;-55
2021/03/22 05:27:56;;;;;;;5.20;1.38;;;22.00;29.50;;;;;;5054841;28;20116;-52
2021/03/22 05:30:22;;;;;;;4.10;1.10;;;22.00;29.50;;;;;;5054576;28;20043;-54
2021/03/22 05:32:48;;;;;;;2.05;1.05;;;22.00;29.50;;;;;;5055399;28;20087;-51
2021/03/22 05:35:17;;;;;;;3.38;1.15;;;22.00;29.50;;;;;;5054571;28;20056;-49
2021/03/22 05:37:44;;;;;;;2.88;1.17;;;22.00;29.60;;;;;;5054906;28;20025;-54
2021/03/22 05:40:18;;;;;;;2.67;1.25;;;22.00;29.60;;;;;;5055231;28;20674;-48
2021/03/22 05:42:59;;;;;;;;;;;22.00;29.60;;;;;;5055979;28;20060;-53
2021/03/22 05:45:35;;;;;;;2.72;0.90;;;21.90;29.60;;;;;;5054889;28;19937;-59
2021/03/22 05:48:24;;;;;;;1.88;0.90;;;22.00;29.60;;;;;;5055173;28;20075;-57
2021/03/22 05:51:21;;;;;;;3.08;1.27;;;21.90;29.60;;;;;;5055579;28;20141;-54
2021/03/22 05:54:12;;;;;;;2.63;0.98;;;21.90;29.60;;;;;;5020361;28;20053;-55
2021/03/22 05:56:45;;;;;;;4.15;1.13;;;21.90;29.60;;;;;;5053864;28;20045;-54
2021/03/22 05:59:30;;;;;;;2.05;1.00;;;21.90;29.60;;;;;;5055558;28;20428;-50
2021/03/22 06:02:03;;;;;;;3.40;0.85;;;21.90;29.60;;;;;;5055735;28;20095;-54
2021/03/22 06:05:07;;;;;;;1.88;0.80;;;21.90;29.70;;;;;;5055396;28;20039;-54
2021/03/22 06:07:39;;;;;;;3.40;0.80;;;21.90;29.70;;;;;;4993850;28;20042;-58
2021/03/22 06:10:24;;;;;;;2.90;1.10;;;21.90;29.70;;;;;;5041813;28;20091;-58
2021/03/22 06:12:58;;;;;;;1.23;0.75;;;21.90;29.70;;;;;;5054818;28;20024;-59
2021/03/22 06:15:45;;;;;;;2.67;1.30;;;21.90;29.70;;;;;;5056430;28;20045;-53
2021/03/22 06:18:29;;;;;;;2.92;1.10;;;21.90;29.70;;;;;;5055071;28;20045;-57
2021/03/22 06:20:56;;;;;;;2.47;0.90;;;21.90;29.70;;;;;;5055533;28;20118;-59
2021/03/22 06:23:26;;;;;;;2.20;0.80;;;21.90;29.70;;;;;;5055428;28;20021;-57
2021/03/22 06:25:52;;;;;;;2.97;1.17;;;21.90;29.70;;;;;;5055643;28;20116;-54
2021/03/22 06:28:26;;;;;;;2.90;0.93;;;21.90;29.80;;;;;;5053659;28;20132;-55
2021/03/22 06:30:57;;;;;;;1.80;0.90;;;21.80;30.10;;;;;;5044303;28;20029;-55
2021/03/22 06:33:36;;;;;;;1.77;0.90;;;21.90;29.70;;;;;;5055493;28;20120;-59
2021/03/22 06:36:03;;;;;;;2.22;0.90;;;21.90;29.70;;;;;;5050315;28;20060;-52
2021/03/22 06:38:29;;;;;;;3.90;0.90;;;21.90;29.80;;;;;;5054993;28;20029;-56
2021/03/22 06:40:55;;;;;;;2.38;0.93;;;21.90;29.80;;;;;;5054885;28;20368;-58
2021/03/22 06:43:24;;;;;;;2.38;0.73;;;21.90;29.80;;;;;;5054807;28;20020;-54
2021/03/22 06:45:53;;;;;;;1.42;0.80;;;21.90;29.80;;;;;;5055014;28;20029;-54
2021/03/22 06:48:27;;;;;;;1.88;0.90;;;21.90;29.80;;;;;;5054970;28;20033;-54
2021/03/22 06:51:15;;;;;;;1.83;0.80;;;21.80;29.80;;;;;;5054633;28;20033;-56
2021/03/22 06:53:50;;;;;;;2.10;0.80;;;21.90;29.80;;;;;;5035498;28;20049;-59
2021/03/22 06:56:24;;;;;;;1.95;0.90;;;21.80;29.80;;;;;;5053327;28;20356;-55
2021/03/22 06:59:08;;;;;;;1.90;1.00;;;21.80;29.80;;;;;;5054011;28;20132;-49
2021/03/22 07:01:34;;;;;;;1.90;0.73;;;21.80;29.80;;;;;;5049244;28;20385;-55
2021/03/22 07:04:30;;;;;;;1.75;1.00;;;21.80;29.90;;;;;;5055001;28;20039;-55
2021/03/22 07:07:18;;;;;;;1.27;0.70;;;21.80;29.90;;;;;;5054859;28;20024;-47
2021/03/22 07:09:59;;;;;;;2.05;0.73;;;21.80;29.90;;;;;;5054406;28;20040;-55
2021/03/22 07:12:39;;;;;;;2.35;0.80;;;21.80;30.00;;;;;;5054662;28;20043;-54
2021/03/22 07:15:24;;;;;;;1.92;0.73;;;21.80;30.00;;;;;;5044610;28;20045;-56
2021/03/22 07:18:00;;;;;;;2.42;0.70;;;21.80;30.00;;;;;;5053671;28;20072;-53
2021/03/22 07:20:26;;;;;;;1.58;0.80;;;21.80;30.00;;;;;;5050274;28;20049;-56
2021/03/22 07:23:12;;;;;;;1.38;0.68;;;21.80;30.00;;;;;;5053759;28;20040;-49
2021/03/22 07:25:51;;;;;;;2.35;0.80;;;21.80;30.00;;;;;;5052402;28;20309;-55
2021/03/22 07:28:28;;;;;;;1.77;0.82;;;21.80;30.00;;;;;;5054073;28;20502;-53
2021/03/22 07:31:15;;;;;;;1.92;0.90;;;21.80;30.00;;;;;;5054038;28;20039;-58
2021/03/22 07:34:10;;;;;;;3.03;1.00;;;21.80;30.10;;;;;;5045755;28;20041;-52
2021/03/22 07:36:44;;;;;;;1.08;0.57;;;21.90;30.20;;;;;;5049601;28;20040;-61
2021/03/22 07:39:21;;;;;;;1.48;0.75;;;21.90;30.30;;;;;;5053445;28;20047;-50
2021/03/22 07:42:24;;;;;;;2.60;0.88;;;21.90;30.30;;;;;;5051906;28;20037;-60
2021/03/22 07:45:09;;;;;;;2.63;1.00;;;22.00;30.50;;;;;;5049622;28;20021;-58
2021/03/22 07:48:02;;;;;;;2.00;0.80;;;22.00;30.40;;;;;;5048373;28;20035;-54
2021/03/22 07:50:40;;;;;;;1.58;0.88;;;22.10;30.40;;;;;;5046907;28;20037;-60
2021/03/22 07:53:11;;;;;;;3.53;1.40;;;22.10;30.30;;;;;;5049910;28;20367;-58
2021/03/22 07:55:43;;;;;;;3.10;1.13;;;22.10;30.20;;;;;;5049280;28;20356;-63
2021/03/22 07:58:47;;;;;;;2.40;0.85;;;22.20;30.20;;;;;;5051278;28;20051;-61
2021/03/22 08:01:35;;;;;;;2.67;0.80;;;22.30;30.30;;;;;;5051732;28;20025;-58
2021/03/22 08:04:38;;;;;;;2.00;0.82;;;22.30;30.30;;;;;;5049552;28;20732;-63
2021/03/22 08:07:16;;;;;;;2.05;0.80;;;22.40;30.20;;;;;;5048797;28;20533;-58
2021/03/22 08:10:21;;;;;;;1.60;0.80;;;22.40;30.10;;;;;;5049516;28;20033;-60
2021/03/22 08:13:22;;;;;;;1.63;0.70;;;22.50;30.00;;;;;;5055952;28;20029;-65
2021/03/22 08:16:15;;;;;;;1.17;0.80;;;22.50;30.00;;;;;;4978733;28;20042;-60
2021/03/22 08:18:46;;;;;;;1.58;0.55;;;22.60;29.90;;;;;;5054538;28;20049;-61
2021/03/22 08:21:33;;;;;;;0.80;0.50;;;22.60;29.90;;;;;;5056479;28;20440;-58
2021/03/22 08:24:26;;;;;;;2.97;0.75;;;22.70;29.80;;;;;;5058396;28;20074;-61
2021/03/22 08:27:02;;;;;;;1.20;0.52;;;22.70;29.70;;;;;;5055818;28;20349;-61
2021/03/22 08:29:36;;;;;;;1.08;0.47;;;22.80;29.70;;;;;;5054918;28;20036;-62
2021/03/22 08:32:05;;;;;;;1.13;0.52;;;22.80;29.60;;;;;;5054237;28;20087;-61
2021/03/22 08:34:46;;;;;;;1.25;0.50;;;22.80;29.60;;;;;;5053392;28;20055;-59
2021/03/22 08:37:33;;;;;;;2.00;0.63;;;22.90;29.60;;;;;;5055281;28;20036;-58
2021/03/22 08:40:06;;;;;;;0.75;0.40;;;22.90;29.50;;;;;;5054951;28;20067;-61
2021/03/22 08:42:44;;;;;;;1.48;0.57;;;22.90;29.50;;;;;;5054877;28;20025;-60
2021/03/22 08:45:18;;;;;;;1.08;0.43;;;22.90;29.50;;;;;;5054120;28;20025;-62
2021/03/22 08:48:09;;;;;;;0.57;0.40;;;22.90;29.40;;;;;;5054299;28;20445;-62
2021/03/22 08:50:37;;;;;;;0.75;0.40;;;23.00;29.50;;;;;;5055161;28;20032;-60
2021/03/22 08:53:12;;;;;;;0.60;0.30;;;22.90;29.40;;;;;;5055856;28;20448;-57
2021/03/22 08:55:56;;;;;;;1.02;0.50;;;23.00;29.40;;;;;;5053774;28;20072;-61
2021/03/22 08:58:46;;;;;;;0.68;0.30;;;23.00;29.40;;;;;;5053385;28;20060;-60
2021/03/22 09:01:33;;;;;;;1.55;0.60;;;23.00;29.40;;;;;;5053442;28;20061;-59
2021/03/22 09:04:31;;;;;;;0.73;0.30;;;23.00;29.30;;;;;;5051192;28;20475;-62
2021/03/22 09:07:04;;;;;;;1.52;0.50;;;23.00;29.30;;;;;;5055169;28;20479;-61
2021/03/22 09:09:32;;;;;;;0.88;0.40;;;23.00;29.30;;;;;;5055515;28;20025;-60
2021/03/22 09:12:02;;;;;;;0.98;0.40;;;23.00;29.30;;;;;;5052124;28;20033;-63
2021/03/22 09:14:34;;;;;;;0.73;0.40;;;23.00;29.30;;;;;;5051513;28;20341;-59
2021/03/22 09:17:01;;;;;;;0.75;0.38;;;22.90;29.20;;;;;;5053582;28;20029;-60
2021/03/22 09:19:41;;;;;;;0.50;0.30;;;23.00;29.30;;;;;;5051404;28;20345;-61
2021/03/22 09:22:10;;;;;;;0.60;0.55;;;23.00;29.30;;;;;;5053519;28;20055;-59
2021/03/22 09:24:38;;;;;;;1.52;0.57;;;22.90;29.20;;;;;;5052420;28;20024;-62
2021/03/22 09:27:16;;;;;;;0.93;0.30;;;22.90;29.20;;;;;;5054734;28;20052;-60
2021/03/22 09:29:53;;;;;;;0.70;0.52;;;23.00;29.30;;;;;;5054830;28;20037;-61
2021/03/22 09:32:34;;;;;;;0.70;0.40;;;23.00;29.20;;;;;;5053585;28;20029;-60
2021/03/22 09:35:17;;;;;;;0.73;0.40;;;22.90;29.20;;;;;;5052174;28;20511;-58
2021/03/22 09:37:54;;;;;;;0.90;0.50;;;23.00;29.20;;;;;;5051077;28;20379;-61
2021/03/22 09:40:20;;;;;;;1.00;0.52;;;22.90;29.20;;;;;;5053236;28;20024;-60
2021/03/22 09:43:05;;;;;;;1.58;0.40;;;22.90;29.20;;;;;;5054679;28;20033;-62
2021/03/22 09:45:51;;;;;;;1.60;0.60;;;23.00;29.20;;;;;;5052688;28;20033;-60
2021/03/22 09:48:17;;;;;;;0.93;0.40;;;23.00;29.30;;;;;;5051970;28;20067;-61
2021/03/22 09:51:03;;;;;;;0.73;0.50;;;22.90;29.20;;;;;;5053534;28;20041;-62
2021/03/22 09:54:02;;;;;;;0.73;0.43;;;22.90;29.20;;;;;;5054733;28;20032;-61
2021/03/22 09:56:34;;;;;;;0.60;0.40;;;22.90;29.20;;;;;;5054073;28;20037;-59
2021/03/22 09:59:22;;;;;;;1.05;0.50;;;22.90;29.30;;;;;;5054500;28;20407;-60
2021/03/22 10:01:48;;;;;;;0.65;0.40;;;23.00;29.30;;;;;;5054444;28;20033;-60
2021/03/22 10:04:35;;;;;;;0.52;0.35;;;22.90;29.30;;;;;;5052849;28;20112;-61
2021/03/22 10:07:28;;;;;;;1.17;0.40;;;22.90;29.30;;;;;;5053948;28;20384;-62
2021/03/22 10:10:32;;;;;;;0.63;0.30;;;23.00;29.30;;;;;;5054429;28;20044;-64
2021/03/22 10:13:07;;;;;;;0.93;0.38;;;23.00;29.30;;;;;;5044032;28;20040;-58
2021/03/22 10:16:00;;;;;;;1.33;0.60;;;23.00;29.30;;;;;;5053883;28;20629;-60
2021/03/22 10:18:34;;;;;;;1.02;0.50;;;23.10;29.30;;;;;;5051502;28;20084;-62
2021/03/22 10:21:10;;;;;;;0.75;0.40;;;23.10;29.20;;;;;;5054326;28;20028;-64
2021/03/22 10:23:56;;;;;;;1.13;0.40;;;23.10;29.20;;;;;;5049755;28;20061;-61
2021/03/22 10:26:42;;;;;;;0.45;0.30;;;23.20;29.20;;;;;;5053880;28;20445;-62
2021/03/22 10:29:23;;;;;;;0.80;0.43;;;23.20;29.20;;;;;;5052800;28;20191;-64
2021/03/22 10:32:09;;;;;;;0.60;0.40;;;23.20;29.20;;;;;;5053078;28;20052;-56
2021/03/22 10:35:15;;;;;;;0.70;0.40;;;23.30;29.20;;;;;;5052957;28;20356;-57
2021/03/22 10:37:53;;;;;;;0.45;0.35;;;23.30;29.20;;;;;;5052891;28;20540;-57
2021/03/22 10:40:31;;;;;;;0.82;0.43;;;23.30;29.20;;;;;;5053060;28;20029;-56
2021/03/22 10:42:57;;;;;;;0.47;0.30;;;23.30;29.20;;;;;;5052234;28;20378;-61
2021/03/22 10:45:23;;;;;;;1.27;0.50;;;23.30;29.20;;;;;;5053537;28;20111;-62
2021/03/22 10:47:52;;;;;;;1.45;0.52;;;23.40;29.20;;;;;;5052962;28;20115;-59
2021/03/22 10:50:26;;;;;;;0.52;0.32;;;23.40;29.20;;;;;;5052662;28;20040;-60
2021/03/22 10:53:06;;;;;;;1.48;0.50;;;23.40;29.20;;;;;;5053081;28;20049;-58
2021/03/22 10:55:34;;;;;;;4.10;0.35;;;23.40;29.10;;;;;;5050992;28;20045;-56
2021/03/22 10:58:02;;;;;;;0.60;0.40;;;23.50;29.20;;;;;;5050812;28;20029;-63
2021/03/22 11:00:44;;;;;;;0.57;0.30;;;23.50;29.10;;;;;;5051980;28;20337;-61
2021/03/22 11:03:17;;;;;;;0.32;0.28;;;23.50;29.00;;;;;;5051656;28;20331;-63
2021/03/22 11:05:44;;;;;;;0.68;0.43;;;23.40;29.00;;;;;;4986511;28;20132;-60
2021/03/22 11:08:30;;;;;;;1.25;0.50;;;23.40;28.90;;;;;;4985039;28;20034;-64
2021/03/22 11:11:18;;;;;;;0.85;0.30;;;23.40;28.80;;;;;;4973171;28;20030;-61
2021/03/22 11:13:46;;;;;;;0.50;0.20;;;23.40;28.70;;;;;;4967147;28;20062;-63
2021/03/22 11:16:36;;;;;;;0.40;0.30;;;23.40;28.70;;;;;;4984117;28;20031;-62
2021/03/22 11:19:25;;;;;;;0.60;0.30;;;23.40;28.60;;;;;;4985586;28;20042;-61
2021/03/22 11:21:56;;;;;;;0.47;0.28;;;23.40;28.50;;;;;;4988324;28;20034;-63
2021/03/22 11:24:40;;;;;;;0.32;0.20;;;23.30;28.40;;;;;;4989799;28;20038;-65
2021/03/22 11:27:09;;;;;;;0.43;0.22;;;23.30;28.40;;;;;;4982599;28;20034;-62
2021/03/22 11:29:50;;;;;;;0.73;0.40;;;23.30;28.40;;;;;;4985054;28;20073;-66
2021/03/22 11:32:20;;;;;;;0.43;0.20;;;23.30;28.30;;;;;;4984947;28;20054;-63
2021/03/22 11:34:47;;;;;;;0.90;0.30;;;23.30;28.40;;;;;;4983957;28;20039;-63
2021/03/22 11:37:30;;;;;;;0.40;0.30;;;23.20;28.30;;;;;;5031218;28;20514;-61
2021/03/22 11:40:18;;;;;;;0.37;0.17;;;23.20;28.30;;;;;;5049972;28;20388;-62
2021/03/22 11:42:52;;;;;;;0.30;0.20;;;23.20;28.30;;;;;;5045789;28;20328;-62
2021/03/22 11:45:40;;;;;;;0.60;0.30;;;23.20;28.30;;;;;;5051206;28;20146;-61
2021/03/22 11:48:26;;;;;;;1.38;0.45;;;23.20;28.40;;;;;;5054839;28;20029;-60
2021/03/22 11:50:54;;;;;;;0.22;0.20;;;23.20;28.40;;;;;;5051308;28;20107;-63
2021/03/22 11:53:22;;;;;;;0.25;0.20;;;23.20;28.50;;;;;;5047793;28;20040;-62
2021/03/22 11:56:13;;;;;;;0.95;0.30;;;23.20;28.60;;;;;;5046544;28;20107;-60
2021/03/22 11:58:40;;;;;;;0.90;0.32;;;23.30;28.50;;;;;;5047344;28;20356;-60
2021/03/22 12:01:24;;;;;;;1.00;0.32;;;23.20;28.50;;;;;;5048180;28;20025;-62
2021/03/22 12:04:05;;;;;;;0.50;0.30;;;23.30;28.50;;;;;;5048474;28;20068;-61
2021/03/22 12:07:03;;;;;;;0.40;0.10;;;23.30;28.50;;;;;;5048090;28;20053;-64
2021/03/22 12:09:31;;;;;;;0.52;0.28;;;23.30;28.40;;;;;;5048403;28;20095;-62
2021/03/22 12:11:58;;;;;;;0.32;0.22;;;23.20;28.40;;;;;;5049374;28;20033;-63
2021/03/22 12:14:24;;;;;;;0.52;0.30;;;23.20;28.40;;;;;;5043110;28;20051;-62
2021/03/22 12:17:04;;;;;;;0.28;0.20;;;23.20;28.40;;;;;;5050771;28;20033;-62
2021/03/22 12:19:42;;;;;;;0.15;0.15;;;23.20;28.40;;;;;;5047279;28;20034;-59
2021/03/22 12:22:16;;;;;;;2.50;0.30;;;23.20;28.40;;;;;;5047876;28;20047;-63
2021/03/22 12:24:42;;;;;;;0.60;0.20;;;23.10;28.30;;;;;;5045486;28;20048;-64
2021/03/22 12:27:18;;;;;;;0.40;0.20;;;23.10;28.40;;;;;;5046729;28;20116;-65
2021/03/22 12:29:45;;;;;;;0.20;0.10;;;23.10;28.30;;;;;;5045868;28;20060;-62
2021/03/22 12:32:21;;;;;;;0.95;0.30;;;23.00;28.30;;;;;;5046716;28;20057;-64
2021/03/22 12:34:47;;;;;;;0.47;0.20;;;23.00;28.20;;;;;;5050411;28;20502;-60
2021/03/22 12:37:25;;;;;;;0.50;0.22;;;23.00;28.20;;;;;;5050827;28;20116;-60
2021/03/22 12:39:53;;;;;;;0.20;0.10;;;23.00;28.20;;;;;;5049851;28;20057;-63
2021/03/22 12:42:20;;;;;;;0.25;0.20;;;23.00;28.20;;;;;;5049473;28;20028;-61
2021/03/22 12:44:46;;;;;;;0.43;0.20;;;23.00;28.10;;;;;;5050518;28;20025;-60
2021/03/22 12:47:18;;;;;;;0.85;0.20;;;23.00;28.10;;;;;;5049039;28;20033;-62
2021/03/22 12:49:44;;;;;;;0.43;0.10;;;23.00;28.00;;;;;;5051224;28;20085;-60
2021/03/22 12:52:09;;;;;;;0.60;0.20;;;23.00;28.00;;;;;;5051594;28;20029;-60
2021/03/22 12:54:36;;;;;;;0.95;0.20;;;23.00;28.00;;;;;;5052336;28;20029;-60
2021/03/22 12:57:01;;;;;;;0.50;0.22;;;22.90;27.90;;;;;;5058472;28;20024;-60
2021/03/22 12:59:40;;;;;;;0.28;0.20;;;22.90;27.80;;;;;;5054590;28;20094;-58
2021/03/22 13:02:22;;;;;;;0.30;0.20;;;22.90;27.80;;;;;;5043042;28;20411;-55
2021/03/22 13:04:48;;;;;;;1.08;0.20;;;22.90;27.80;;;;;;5056756;28;20120;-52
2021/03/22 13:07:16;;;;;;;0.50;0.20;;;22.90;27.80;;;;;;5056726;28;20033;-60
2021/03/22 13:09:42;;;;;;;0.25;0.10;;;22.80;27.70;;;;;;5056386;28;20359;-56
2021/03/22 13:12:19;;;;;;;0.60;0.20;;;22.80;27.80;;;;;;5056789;28;20032;-54
2021/03/22 13:14:45;;;;;;;0.65;0.22;;;22.80;27.80;;;;;;5051994;28;20325;-51
2021/03/22 13:17:13;;;;;;;0.32;0.20;;;22.70;27.80;;;;;;5055493;28;20077;-55
2021/03/22 13:19:40;;;;;;;0.35;0.20;;;22.70;27.80;;;;;;5056269;28;20122;-52
2021/03/22 13:22:16;;;;;;;1.05;0.20;;;22.70;27.90;;;;;;5056674;28;20360;-54
2021/03/22 13:24:41;;;;;;;0.10;0.10;;;22.70;27.90;;;;;;5041122;28;20033;-48
2021/03/22 13:27:09;;;;;;;0.40;0.20;;;22.70;27.80;;;;;;5056231;28;20391;-56